Questo sito utilizza cookie di profilazione, eventualmente anche di terze parti, per inviarti pubblicità in linea con le tue preferenze. Se vuoi saperne di più o negare il consenso a tutti o ad alcuni cookie clicca qui. Proseguendo la navigazione acconsenti all'uso di tutti i cookie.

seminario sicurezza volo 2018.pdf

 

Cliccare QUI o sulla locandina per accedere al modulo di iscrizione

 

 

 

AVS Logo

  

 

AVS - Associazione Volovelistica Scaligera

 
 

Associazione Volovelistica Scaligera A.s.d.

 

Con sede operativa presso l’aeroporto di Boscomantico nasce il 7 aprile 1997 per merito di un eterogeneo gruppo di appassionati. Lo scopo dell’Associazione, che è senza scopo di lucro ed è riconosciuta dalla Regione Veneto e dal CONI, è quello di promuovere lo sport del Volo a Vela nella città di Verona e provincia a costi assolutamente accessibili.

 

 

 

Scuola di volo a vela - Conseguimento licenza di pilota di aliante

 

Nel 2012, dopo un lungo lavoro di organizzazione riceve dall’ENAC (Ente Nazionale Aviazione Civile) la certificazione operativa della propria Scuola di Volo a Vela, che torna nella nostra città dopo 15 anni dalla chiusura di quella dell’Aeroclub di Verona.

La scuola, che conta sulla disponibilità di 4 istruttori altamente qualificati, ha avuto subito un grande successo e ad oggi si contano numerosi allievi iscritti.

 

 

 

Circuito aeroporto di BOSCOMANTICO LIPN

 

Circuito-LIPN-piccolo

 

 

Dove siamo

 

 

 

 

AVS Logo gabbiani-250

 

  

 

 

 

Metar Verona Villafranca - LIPX

[source: ADDS]
METAR
LIPX 160950Z 06014KT 9999 SCT050 13/02 Q1028 =
TAF LIPX 160800Z 1609/1618 08008KT CAVOK
TAF
TAF LIPX 160800Z 1609/1618 08008KT CAVOK =
SR / SS: 06:17 / 15:45 UTC ( 2018-11-16)

 

   Seguici anche su Facebook

Avs-su-FB